sensor_id;sensor_type;location;lat;lon;timestamp;P1;durP1;ratioP1;P2;durP2;ratioP2
48263;SDS011;34086;51.076;13.722;2023-03-23T00:00:29;7.05;;;4.18;;
48263;SDS011;34086;51.076;13.722;2023-03-23T00:01:30;5.28;;;4.00;;
48263;SDS011;34086;51.076;13.722;2023-03-23T00:02:31;6.30;;;4.00;;
48263;SDS011;34086;51.076;13.722;2023-03-23T00:03:36;5.50;;;3.95;;
48263;SDS011;34086;51.076;13.722;2023-03-23T00:04:37;5.10;;;3.95;;
48263;SDS011;34086;51.076;13.722;2023-03-23T00:05:38;6.47;;;4.40;;
48263;SDS011;34086;51.076;13.722;2023-03-23T00:06:41;6.35;;;4.63;;
48263;SDS011;34086;51.076;13.722;2023-03-23T00:07:42;7.10;;;4.68;;
48263;SDS011;34086;51.076;13.722;2023-03-23T00:08:46;8.23;;;4.90;;
48263;SDS011;34086;51.076;13.722;2023-03-23T00:09:49;10.45;;;4.90;;
48263;SDS011;34086;51.076;13.722;2023-03-23T00:10:54;8.80;;;4.50;;
48263;SDS011;34086;51.076;13.722;2023-03-23T00:11:56;8.07;;;4.65;;
48263;SDS011;34086;51.076;13.722;2023-03-23T00:13:04;6.68;;;4.63;;
48263;SDS011;34086;51.076;13.722;2023-03-23T00:14:06;10.05;;;5.15;;
48263;SDS011;34086;51.076;13.722;2023-03-23T00:15:12;7.28;;;4.63;;
48263;SDS011;34086;51.076;13.722;2023-03-23T00:16:16;6.40;;;4.10;;
48263;SDS011;34086;51.076;13.722;2023-03-23T00:17:29;5.90;;;4.18;;
48263;SDS011;34086;51.076;13.722;2023-03-23T00:18:30;5.65;;;4.05;;
48263;SDS011;34086;51.076;13.722;2023-03-23T00:19:30;5.45;;;4.07;;
48263;SDS011;34086;51.076;13.722;2023-03-23T00:20:32;5.88;;;4.03;;
48263;SDS011;34086;51.076;13.722;2023-03-23T00:21:41;6.10;;;4.15;;
48263;SDS011;34086;51.076;13.722;2023-03-23T00:22:42;5.57;;;4.03;;
48263;SDS011;34086;51.076;13.722;2023-03-23T00:23:43;4.72;;;3.50;;
48263;SDS011;34086;51.076;13.722;2023-03-23T00:24:44;4.72;;;3.30;;
48263;SDS011;34086;51.076;13.722;2023-03-23T00:25:46;4.53;;;3.35;;
48263;SDS011;34086;51.076;13.722;2023-03-23T00:26:48;5.35;;;3.30;;
48263;SDS011;34086;51.076;13.722;2023-03-23T00:27:51;6.30;;;3.40;;
48263;SDS011;34086;51.076;13.722;2023-03-23T00:28:52;5.57;;;3.40;;
48263;SDS011;34086;51.076;13.722;2023-03-23T00:29:52;3.92;;;3.22;;
48263;SDS011;34086;51.076;13.722;2023-03-23T00:31:00;4.63;;;3.45;;
48263;SDS011;34086;51.076;13.722;2023-03-23T00:32:02;4.07;;;3.30;;
48263;SDS011;34086;51.076;13.722;2023-03-23T00:33:06;5.22;;;3.25;;
48263;SDS011;34086;51.076;13.722;2023-03-23T00:34:06;3.80;;;2.97;;
48263;SDS011;34086;51.076;13.722;2023-03-23T00:35:07;6.47;;;3.08;;
48263;SDS011;34086;51.076;13.722;2023-03-23T00:36:08;4.07;;;2.83;;
48263;SDS011;34086;51.076;13.722;2023-03-23T00:37:13;3.35;;;2.50;;
48263;SDS011;34086;51.076;13.722;2023-03-23T00:38:16;4.28;;;2.30;;
48263;SDS011;34086;51.076;13.722;2023-03-23T00:39:17;2.97;;;2.08;;
48263;SDS011;34086;51.076;13.722;2023-03-23T00:40:17;2.97;;;2.00;;
48263;SDS011;34086;51.076;13.722;2023-03-23T00:41:18;3.42;;;2.10;;
48263;SDS011;34086;51.076;13.722;2023-03-23T00:42:19;3.20;;;1.90;;
48263;SDS011;34086;51.076;13.722;2023-03-23T00:43:21;2.13;;;1.70;;
48263;SDS011;34086;51.076;13.722;2023-03-23T00:44:24;3.85;;;1.92;;
48263;SDS011;34086;51.076;13.722;2023-03-23T00:45:25;3.58;;;1.92;;
48263;SDS011;34086;51.076;13.722;2023-03-23T00:46:26;2.50;;;1.80;;
48263;SDS011;34086;51.076;13.722;2023-03-23T00:47:27;4.13;;;1.90;;
48263;SDS011;34086;51.076;13.722;2023-03-23T00:48:28;3.25;;;1.88;;
48263;SDS011;34086;51.076;13.722;2023-03-23T00:49:29;3.53;;;2.00;;
48263;SDS011;34086;51.076;13.722;2023-03-23T00:50:30;3.10;;;1.90;;
48263;SDS011;34086;51.076;13.722;2023-03-23T00:51:31;3.55;;;1.75;;
48263;SDS011;34086;51.076;13.722;2023-03-23T00:52:32;3.33;;;1.70;;
48263;SDS011;34086;51.076;13.722;2023-03-23T00:53:32;3.60;;;1.90;;
48263;SDS011;34086;51.076;13.722;2023-03-23T00:54:33;3.72;;;1.70;;
48263;SDS011;34086;51.076;13.722;2023-03-23T00:55:34;2.92;;;1.90;;
48263;SDS011;34086;51.076;13.722;2023-03-23T00:56:35;4.10;;;1.88;;
48263;SDS011;34086;51.076;13.722;2023-03-23T00:57:36;5.50;;;2.00;;
48263;SDS011;34086;51.076;13.722;2023-03-23T00:58:37;5.43;;;2.33;;
48263;SDS011;34086;51.076;13.722;2023-03-23T00:59:38;4.32;;;2.05;;
48263;SDS011;34086;51.076;13.722;2023-03-23T01:00:38;4.50;;;1.90;;
48263;SDS011;34086;51.076;13.722;2023-03-23T01:01:40;3.08;;;1.80;;
48263;SDS011;34086;51.076;13.722;2023-03-23T01:02:41;6.38;;;2.08;;
48263;SDS011;34086;51.076;13.722;2023-03-23T01:03:44;3.30;;;1.70;;
48263;SDS011;34086;51.076;13.722;2023-03-23T01:04:45;4.57;;;1.90;;
48263;SDS011;34086;51.076;13.722;2023-03-23T01:05:46;3.00;;;1.80;;
48263;SDS011;34086;51.076;13.722;2023-03-23T01:06:49;2.47;;;1.60;;
48263;SDS011;34086;51.076;13.722;2023-03-23T01:07:50;2.75;;;1.80;;
48263;SDS011;34086;51.076;13.722;2023-03-23T01:08:51;1.60;;;1.50;;
48263;SDS011;34086;51.076;13.722;2023-03-23T01:09:53;3.55;;;1.60;;
48263;SDS011;34086;51.076;13.722;2023-03-23T01:11:01;2.08;;;1.45;;
48263;SDS011;34086;51.076;13.722;2023-03-23T01:12:03;1.55;;;1.40;;
48263;SDS011;34086;51.076;13.722;2023-03-23T01:13:06;2.00;;;1.50;;
48263;SDS011;34086;51.076;13.722;2023-03-23T01:14:07;1.50;;;1.40;;
48263;SDS011;34086;51.076;13.722;2023-03-23T01:15:14;2.72;;;1.52;;
48263;SDS011;34086;51.076;13.722;2023-03-23T01:16:16;3.85;;;1.70;;
48263;SDS011;34086;51.076;13.722;2023-03-23T01:17:17;2.05;;;1.50;;
48263;SDS011;34086;51.076;13.722;2023-03-23T01:18:19;4.03;;;1.58;;
48263;SDS011;34086;51.076;13.722;2023-03-23T01:19:19;1.98;;;1.50;;
48263;SDS011;34086;51.076;13.722;2023-03-23T01:20:20;1.77;;;1.45;;
48263;SDS011;34086;51.076;13.722;2023-03-23T01:21:21;1.50;;;1.30;;
48263;SDS011;34086;51.076;13.722;2023-03-23T01:22:21;3.33;;;1.50;;
48263;SDS011;34086;51.076;13.722;2023-03-23T01:23:22;2.65;;;1.40;;
48263;SDS011;34086;51.076;13.722;2023-03-23T01:24:23;2.40;;;1.67;;
48263;SDS011;34086;51.076;13.722;2023-03-23T01:25:23;1.92;;;1.42;;
48263;SDS011;34086;51.076;13.722;2023-03-23T01:26:26;2.08;;;1.80;;
48263;SDS011;34086;51.076;13.722;2023-03-23T01:27:28;2.47;;;1.60;;
48263;SDS011;34086;51.076;13.722;2023-03-23T01:28:28;1.70;;;1.40;;
48263;SDS011;34086;51.076;13.722;2023-03-23T01:29:29;1.60;;;1.35;;
48263;SDS011;34086;51.076;13.722;2023-03-23T01:30:30;1.92;;;1.40;;
48263;SDS011;34086;51.076;13.722;2023-03-23T01:31:31;2.47;;;1.40;;
48263;SDS011;34086;51.076;13.722;2023-03-23T01:32:31;2.63;;;1.42;;
48263;SDS011;34086;51.076;13.722;2023-03-23T01:33:32;3.38;;;1.40;;
48263;SDS011;34086;51.076;13.722;2023-03-23T01:34:33;2.38;;;1.50;;
48263;SDS011;34086;51.076;13.722;2023-03-23T01:35:36;1.60;;;1.40;;
48263;SDS011;34086;51.076;13.722;2023-03-23T01:36:37;1.48;;;1.38;;
48263;SDS011;34086;51.076;13.722;2023-03-23T01:37:38;2.00;;;1.50;;
48263;SDS011;34086;51.076;13.722;2023-03-23T01:38:39;1.60;;;1.50;;
48263;SDS011;34086;51.076;13.722;2023-03-23T01:39:41;1.48;;;1.38;;
48263;SDS011;34086;51.076;13.722;2023-03-23T01:40:43;1.55;;;1.40;;
48263;SDS011;34086;51.076;13.722;2023-03-23T01:41:44;1.40;;;1.20;;
48263;SDS011;34086;51.076;13.722;2023-03-23T01:42:46;1.45;;;1.25;;
48263;SDS011;34086;51.076;13.722;2023-03-23T01:45:20;2.20;;;1.35;;
48263;SDS011;34086;51.076;13.722;2023-03-23T01:46:26;1.48;;;1.33;;
48263;SDS011;34086;51.076;13.722;2023-03-23T01:47:29;1.40;;;1.30;;
48263;SDS011;34086;51.076;13.722;2023-03-23T01:48:33;2.03;;;1.35;;
48263;SDS011;34086;51.076;13.722;2023-03-23T01:49:37;1.52;;;1.40;;
48263;SDS011;34086;51.076;13.722;2023-03-23T01:50:47;1.42;;;1.30;;
48263;SDS011;34086;51.076;13.722;2023-03-23T01:51:52;1.48;;;1.30;;
48263;SDS011;34086;51.076;13.722;2023-03-23T01:52:57;1.73;;;1.60;;
48263;SDS011;34086;51.076;13.722;2023-03-23T01:54:00;1.95;;;1.60;;
48263;SDS011;34086;51.076;13.722;2023-03-23T01:55:03;1.50;;;1.40;;
48263;SDS011;34086;51.076;13.722;2023-03-23T01:56:06;1.73;;;1.50;;
48263;SDS011;34086;51.076;13.722;2023-03-23T01:57:15;1.60;;;1.50;;
48263;SDS011;34086;51.076;13.722;2023-03-23T01:58:19;2.45;;;1.73;;
48263;SDS011;34086;51.076;13.722;2023-03-23T01:59:25;1.50;;;1.40;;
48263;SDS011;34086;51.076;13.722;2023-03-23T02:00:47;1.60;;;1.50;;
48263;SDS011;34086;51.076;13.722;2023-03-23T02:01:48;2.30;;;1.50;;
48263;SDS011;34086;51.076;13.722;2023-03-23T02:02:52;1.70;;;1.60;;
48263;SDS011;34086;51.076;13.722;2023-03-23T02:03:55;1.70;;;1.60;;
48263;SDS011;34086;51.076;13.722;2023-03-23T02:04:59;1.65;;;1.55;;
48263;SDS011;34086;51.076;13.722;2023-03-23T02:06:06;1.60;;;1.50;;
48263;SDS011;34086;51.076;13.722;2023-03-23T02:07:12;1.55;;;1.45;;
48263;SDS011;34086;51.076;13.722;2023-03-23T02:08:17;2.17;;;1.58;;
48263;SDS011;34086;51.076;13.722;2023-03-23T02:09:19;1.92;;;1.73;;
48263;SDS011;34086;51.076;13.722;2023-03-23T02:10:22;2.22;;;1.70;;
48263;SDS011;34086;51.076;13.722;2023-03-23T02:11:23;2.13;;;1.52;;
48263;SDS011;34086;51.076;13.722;2023-03-23T02:12:24;1.77;;;1.60;;
48263;SDS011;34086;51.076;13.722;2023-03-23T02:13:26;1.80;;;1.70;;
48263;SDS011;34086;51.076;13.722;2023-03-23T02:14:28;2.03;;;1.80;;
48263;SDS011;34086;51.076;13.722;2023-03-23T02:15:34;1.80;;;1.70;;
48263;SDS011;34086;51.076;13.722;2023-03-23T02:34:10;2.90;;;1.65;;
48263;SDS011;34086;51.076;13.722;2023-03-23T02:35:17;1.73;;;1.60;;
48263;SDS011;34086;51.076;13.722;2023-03-23T02:36:33;2.13;;;1.60;;
48263;SDS011;34086;51.076;13.722;2023-03-23T02:37:41;1.95;;;1.52;;
48263;SDS011;34086;51.076;13.722;2023-03-23T02:39:58;2.63;;;1.55;;
48263;SDS011;34086;51.076;13.722;2023-03-23T02:41:23;2.67;;;1.65;;
48263;SDS011;34086;51.076;13.722;2023-03-23T02:42:29;2.03;;;1.60;;
48263;SDS011;34086;51.076;13.722;2023-03-23T02:43:37;2.22;;;1.80;;
48263;SDS011;34086;51.076;13.722;2023-03-23T02:44:43;2.42;;;1.60;;
48263;SDS011;34086;51.076;13.722;2023-03-23T02:45:46;2.50;;;1.70;;
48263;SDS011;34086;51.076;13.722;2023-03-23T02:46:47;1.95;;;1.50;;
48263;SDS011;34086;51.076;13.722;2023-03-23T02:47:50;1.65;;;1.50;;
48263;SDS011;34086;51.076;13.722;2023-03-23T02:48:52;3.20;;;1.70;;
48263;SDS011;34086;51.076;13.722;2023-03-23T02:49:56;2.97;;;1.60;;
48263;SDS011;34086;51.076;13.722;2023-03-23T02:50:58;1.70;;;1.60;;
48263;SDS011;34086;51.076;13.722;2023-03-23T02:52:05;2.13;;;1.50;;
48263;SDS011;34086;51.076;13.722;2023-03-23T02:53:12;1.80;;;1.70;;
48263;SDS011;34086;51.076;13.722;2023-03-23T02:54:16;2.17;;;1.67;;
48263;SDS011;34086;51.076;13.722;2023-03-23T02:55:20;2.60;;;1.90;;
48263;SDS011;34086;51.076;13.722;2023-03-23T02:56:23;3.85;;;2.30;;
48263;SDS011;34086;51.076;13.722;2023-03-23T02:57:26;2.25;;;1.85;;
48263;SDS011;34086;51.076;13.722;2023-03-23T02:58:29;3.33;;;2.28;;
48263;SDS011;34086;51.076;13.722;2023-03-23T02:59:31;2.75;;;2.10;;
48263;SDS011;34086;51.076;13.722;2023-03-23T03:00:32;3.13;;;1.95;;
48263;SDS011;34086;51.076;13.722;2023-03-23T03:02:43;2.85;;;1.88;;
48263;SDS011;34086;51.076;13.722;2023-03-23T03:03:47;3.55;;;2.15;;
48263;SDS011;34086;51.076;13.722;2023-03-23T03:04:49;2.10;;;1.80;;
48263;SDS011;34086;51.076;13.722;2023-03-23T03:07:32;2.63;;;1.92;;
48263;SDS011;34086;51.076;13.722;2023-03-23T03:11:14;2.38;;;1.70;;
48263;SDS011;34086;51.076;13.722;2023-03-23T03:12:25;2.42;;;1.70;;
48263;SDS011;34086;51.076;13.722;2023-03-23T03:14:57;2.22;;;1.70;;
48263;SDS011;34086;51.076;13.722;2023-03-23T03:17:44;1.77;;;1.63;;
48263;SDS011;34086;51.076;13.722;2023-03-23T03:18:53;1.80;;;1.60;;
48263;SDS011;34086;51.076;13.722;2023-03-23T03:20:14;1.60;;;1.50;;
48263;SDS011;34086;51.076;13.722;2023-03-23T03:21:16;1.60;;;1.50;;
48263;SDS011;34086;51.076;13.722;2023-03-23T03:22:20;1.88;;;1.67;;
48263;SDS011;34086;51.076;13.722;2023-03-23T03:23:22;2.20;;;1.60;;
48263;SDS011;34086;51.076;13.722;2023-03-23T03:24:28;1.75;;;1.50;;
48263;SDS011;34086;51.076;13.722;2023-03-23T03:25:30;1.70;;;1.58;;
48263;SDS011;34086;51.076;13.722;2023-03-23T03:26:32;2.45;;;1.50;;
48263;SDS011;34086;51.076;13.722;2023-03-23T03:27:51;1.67;;;1.52;;
48263;SDS011;34086;51.076;13.722;2023-03-23T03:29:06;1.80;;;1.63;;
48263;SDS011;34086;51.076;13.722;2023-03-23T03:30:13;1.48;;;1.38;;
48263;SDS011;34086;51.076;13.722;2023-03-23T03:31:18;2.13;;;1.60;;
48263;SDS011;34086;51.076;13.722;2023-03-23T03:32:23;2.03;;;1.70;;
48263;SDS011;34086;51.076;13.722;2023-03-23T03:33:31;1.88;;;1.60;;
48263;SDS011;34086;51.076;13.722;2023-03-23T03:34:33;1.85;;;1.67;;
48263;SDS011;34086;51.076;13.722;2023-03-23T03:35:36;1.77;;;1.63;;
48263;SDS011;34086;51.076;13.722;2023-03-23T03:36:39;1.95;;;1.77;;
48263;SDS011;34086;51.076;13.722;2023-03-23T03:37:42;2.42;;;1.73;;
48263;SDS011;34086;51.076;13.722;2023-03-23T03:38:46;1.63;;;1.50;;
48263;SDS011;34086;51.076;13.722;2023-03-23T03:39:49;1.92;;;1.60;;
48263;SDS011;34086;51.076;13.722;2023-03-23T03:40:51;3.35;;;1.70;;
48263;SDS011;34086;51.076;13.722;2023-03-23T03:41:52;2.10;;;1.85;;
48263;SDS011;34086;51.076;13.722;2023-03-23T03:42:54;2.75;;;1.98;;
48263;SDS011;34086;51.076;13.722;2023-03-23T03:43:55;2.00;;;1.80;;
48263;SDS011;34086;51.076;13.722;2023-03-23T03:44:55;2.25;;;1.58;;
48263;SDS011;34086;51.076;13.722;2023-03-23T03:45:56;2.05;;;1.50;;
48263;SDS011;34086;51.076;13.722;2023-03-23T03:46:57;1.90;;;1.60;;
48263;SDS011;34086;51.076;13.722;2023-03-23T03:47:57;1.60;;;1.50;;
48263;SDS011;34086;51.076;13.722;2023-03-23T03:48:58;2.85;;;1.83;;
48263;SDS011;34086;51.076;13.722;2023-03-23T03:50:00;1.95;;;1.67;;
48263;SDS011;34086;51.076;13.722;2023-03-23T03:51:00;2.30;;;1.60;;
48263;SDS011;34086;51.076;13.722;2023-03-23T03:52:04;2.00;;;1.70;;
48263;SDS011;34086;51.076;13.722;2023-03-23T03:53:12;1.73;;;1.60;;
48263;SDS011;34086;51.076;13.722;2023-03-23T03:54:13;1.60;;;1.50;;
48263;SDS011;34086;51.076;13.722;2023-03-23T03:55:16;3.13;;;1.40;;
48263;SDS011;34086;51.076;13.722;2023-03-23T03:56:19;1.85;;;1.67;;
48263;SDS011;34086;51.076;13.722;2023-03-23T03:57:30;2.85;;;1.80;;
48263;SDS011;34086;51.076;13.722;2023-03-23T03:58:50;2.10;;;1.90;;
48263;SDS011;34086;51.076;13.722;2023-03-23T04:00:09;2.38;;;1.67;;
48263;SDS011;34086;51.076;13.722;2023-03-23T04:01:14;4.70;;;2.00;;
48263;SDS011;34086;51.076;13.722;2023-03-23T04:02:17;2.95;;;1.80;;
48263;SDS011;34086;51.076;13.722;2023-03-23T04:03:20;2.22;;;1.70;;
48263;SDS011;34086;51.076;13.722;2023-03-23T04:04:33;3.33;;;2.10;;
48263;SDS011;34086;51.076;13.722;2023-03-23T04:05:34;3.22;;;1.95;;
48263;SDS011;34086;51.076;13.722;2023-03-23T04:06:37;1.92;;;1.50;;
48263;SDS011;34086;51.076;13.722;2023-03-23T04:07:38;2.30;;;1.65;;
48263;SDS011;34086;51.076;13.722;2023-03-23T04:08:39;2.50;;;1.80;;
48263;SDS011;34086;51.076;13.722;2023-03-23T04:09:42;2.10;;;1.77;;
48263;SDS011;34086;51.076;13.722;2023-03-23T04:10:46;2.22;;;1.80;;
48263;SDS011;34086;51.076;13.722;2023-03-23T04:11:48;1.60;;;1.50;;
48263;SDS011;34086;51.076;13.722;2023-03-23T04:13:11;1.67;;;1.42;;
48263;SDS011;34086;51.076;13.722;2023-03-23T04:14:35;2.58;;;1.70;;
48263;SDS011;34086;51.076;13.722;2023-03-23T04:15:36;1.80;;;1.70;;
48263;SDS011;34086;51.076;13.722;2023-03-23T04:16:36;1.85;;;1.60;;
48263;SDS011;34086;51.076;13.722;2023-03-23T04:17:37;1.65;;;1.40;;
48263;SDS011;34086;51.076;13.722;2023-03-23T04:18:38;1.58;;;1.48;;
48263;SDS011;34086;51.076;13.722;2023-03-23T04:19:39;1.90;;;1.67;;
48263;SDS011;34086;51.076;13.722;2023-03-23T04:20:41;1.52;;;1.42;;
48263;SDS011;34086;51.076;13.722;2023-03-23T04:21:42;2.10;;;1.48;;
48263;SDS011;34086;51.076;13.722;2023-03-23T04:22:44;1.70;;;1.60;;
48263;SDS011;34086;51.076;13.722;2023-03-23T04:23:45;1.90;;;1.60;;
48263;SDS011;34086;51.076;13.722;2023-03-23T04:24:45;2.63;;;1.50;;
48263;SDS011;34086;51.076;13.722;2023-03-23T04:25:51;1.88;;;1.65;;
48263;SDS011;34086;51.076;13.722;2023-03-23T04:26:56;1.70;;;1.60;;
48263;SDS011;34086;51.076;13.722;2023-03-23T04:28:00;2.03;;;1.60;;
48263;SDS011;34086;51.076;13.722;2023-03-23T04:29:06;1.85;;;1.70;;
48263;SDS011;34086;51.076;13.722;2023-03-23T04:30:08;2.22;;;1.75;;
48263;SDS011;34086;51.076;13.722;2023-03-23T04:31:32;2.92;;;1.88;;
48263;SDS011;34086;51.076;13.722;2023-03-23T04:32:43;3.85;;;1.75;;
48263;SDS011;34086;51.076;13.722;2023-03-23T04:33:47;4.32;;;2.20;;
48263;SDS011;34086;51.076;13.722;2023-03-23T04:34:49;3.20;;;2.33;;
48263;SDS011;34086;51.076;13.722;2023-03-23T04:35:50;5.55;;;2.10;;
48263;SDS011;34086;51.076;13.722;2023-03-23T04:37:18;4.22;;;2.50;;
48263;SDS011;34086;51.076;13.722;2023-03-23T04:38:19;5.38;;;2.45;;
48263;SDS011;34086;51.076;13.722;2023-03-23T04:39:25;4.95;;;2.60;;
48263;SDS011;34086;51.076;13.722;2023-03-23T04:40:29;5.57;;;2.40;;
48263;SDS011;34086;51.076;13.722;2023-03-23T04:41:43;5.60;;;2.40;;
48263;SDS011;34086;51.076;13.722;2023-03-23T04:43:02;5.18;;;2.72;;
48263;SDS011;34086;51.076;13.722;2023-03-23T04:44:28;5.00;;;2.80;;
48263;SDS011;34086;51.076;13.722;2023-03-23T04:45:36;4.43;;;2.60;;
48263;SDS011;34086;51.076;13.722;2023-03-23T04:46:41;5.60;;;2.70;;
48263;SDS011;34086;51.076;13.722;2023-03-23T04:47:45;4.32;;;2.70;;
48263;SDS011;34086;51.076;13.722;2023-03-23T04:48:55;5.75;;;2.75;;
48263;SDS011;34086;51.076;13.722;2023-03-23T04:50:02;2.88;;;2.40;;
48263;SDS011;34086;51.076;13.722;2023-03-23T04:51:10;3.53;;;2.40;;
48263;SDS011;34086;51.076;13.722;2023-03-23T04:52:12;3.35;;;2.30;;
48263;SDS011;34086;51.076;13.722;2023-03-23T04:53:18;5.35;;;2.40;;
48263;SDS011;34086;51.076;13.722;2023-03-23T04:54:19;2.50;;;2.20;;
48263;SDS011;34086;51.076;13.722;2023-03-23T04:55:25;5.95;;;2.60;;
48263;SDS011;34086;51.076;13.722;2023-03-23T04:56:30;5.40;;;2.63;;
48263;SDS011;34086;51.076;13.722;2023-03-23T04:57:36;7.05;;;2.90;;
48263;SDS011;34086;51.076;13.722;2023-03-23T04:58:55;7.90;;;3.13;;
48263;SDS011;34086;51.076;13.722;2023-03-23T05:00:04;4.82;;;3.33;;
48263;SDS011;34086;51.076;13.722;2023-03-23T05:01:14;3.40;;;2.78;;
48263;SDS011;34086;51.076;13.722;2023-03-23T05:02:24;3.20;;;2.53;;
48263;SDS011;34086;51.076;13.722;2023-03-23T05:03:25;3.92;;;2.50;;
48263;SDS011;34086;51.076;13.722;2023-03-23T05:04:29;4.40;;;2.70;;
48263;SDS011;34086;51.076;13.722;2023-03-23T05:05:36;3.33;;;2.50;;
48263;SDS011;34086;51.076;13.722;2023-03-23T05:06:40;4.88;;;2.80;;
48263;SDS011;34086;51.076;13.722;2023-03-23T05:07:49;3.58;;;2.67;;
48263;SDS011;34086;51.076;13.722;2023-03-23T05:08:53;4.93;;;2.92;;
48263;SDS011;34086;51.076;13.722;2023-03-23T05:09:56;3.78;;;3.10;;
48263;SDS011;34086;51.076;13.722;2023-03-23T05:11:00;3.85;;;2.75;;
48263;SDS011;34086;51.076;13.722;2023-03-23T05:12:07;4.85;;;2.95;;
48263;SDS011;34086;51.076;13.722;2023-03-23T05:13:16;2.85;;;2.55;;
48263;SDS011;34086;51.076;13.722;2023-03-23T05:14:20;6.80;;;3.00;;
48263;SDS011;34086;51.076;13.722;2023-03-23T05:15:32;3.80;;;3.05;;
48263;SDS011;34086;51.076;13.722;2023-03-23T05:16:35;5.15;;;2.80;;
48263;SDS011;34086;51.076;13.722;2023-03-23T05:17:37;4.82;;;2.88;;
48263;SDS011;34086;51.076;13.722;2023-03-23T05:18:46;4.07;;;2.80;;
48263;SDS011;34086;51.076;13.722;2023-03-23T05:19:50;4.25;;;2.92;;
48263;SDS011;34086;51.076;13.722;2023-03-23T05:21:07;4.15;;;2.88;;
48263;SDS011;34086;51.076;13.722;2023-03-23T05:22:11;5.22;;;2.70;;
48263;SDS011;34086;51.076;13.722;2023-03-23T05:23:19;4.43;;;2.90;;
48263;SDS011;34086;51.076;13.722;2023-03-23T05:24:28;2.90;;;2.60;;
48263;SDS011;34086;51.076;13.722;2023-03-23T05:25:36;3.70;;;2.47;;
48263;SDS011;34086;51.076;13.722;2023-03-23T05:26:44;4.63;;;2.70;;
48263;SDS011;34086;51.076;13.722;2023-03-23T05:27:52;3.85;;;2.60;;
48263;SDS011;34086;51.076;13.722;2023-03-23T05:29:05;6.97;;;2.80;;
48263;SDS011;34086;51.076;13.722;2023-03-23T05:30:15;5.38;;;3.50;;
48263;SDS011;34086;51.076;13.722;2023-03-23T05:31:18;4.00;;;2.97;;
48263;SDS011;34086;51.076;13.722;2023-03-23T05:32:19;4.43;;;3.50;;
48263;SDS011;34086;51.076;13.722;2023-03-23T05:33:21;6.63;;;3.35;;
48263;SDS011;34086;51.076;13.722;2023-03-23T05:34:50;4.35;;;3.03;;
48263;SDS011;34086;51.076;13.722;2023-03-23T05:35:51;7.82;;;4.00;;
48263;SDS011;34086;51.076;13.722;2023-03-23T05:37:01;6.47;;;3.60;;
48263;SDS011;34086;51.076;13.722;2023-03-23T05:38:22;5.90;;;3.60;;
48263;SDS011;34086;51.076;13.722;2023-03-23T05:39:23;7.68;;;3.55;;
48263;SDS011;34086;51.076;13.722;2023-03-23T05:40:46;4.50;;;3.33;;
48263;SDS011;34086;51.076;13.722;2023-03-23T05:41:50;8.07;;;3.58;;
48263;SDS011;34086;51.076;13.722;2023-03-23T05:42:51;6.15;;;3.60;;
48263;SDS011;34086;51.076;13.722;2023-03-23T05:43:58;4.60;;;3.17;;
48263;SDS011;34086;51.076;13.722;2023-03-23T05:45:08;5.93;;;3.10;;
48263;SDS011;34086;51.076;13.722;2023-03-23T05:46:11;5.95;;;3.20;;
48263;SDS011;34086;51.076;13.722;2023-03-23T05:47:13;5.10;;;2.92;;
48263;SDS011;34086;51.076;13.722;2023-03-23T05:48:19;4.47;;;3.20;;
48263;SDS011;34086;51.076;13.722;2023-03-23T05:49:20;4.95;;;2.80;;
48263;SDS011;34086;51.076;13.722;2023-03-23T05:50:22;5.00;;;3.20;;
48263;SDS011;34086;51.076;13.722;2023-03-23T05:51:22;5.45;;;3.28;;
48263;SDS011;34086;51.076;13.722;2023-03-23T05:52:24;4.32;;;3.20;;
48263;SDS011;34086;51.076;13.722;2023-03-23T05:53:25;4.57;;;3.17;;
48263;SDS011;34086;51.076;13.722;2023-03-23T05:54:27;6.90;;;3.08;;
48263;SDS011;34086;51.076;13.722;2023-03-23T05:55:28;6.97;;;3.00;;
48263;SDS011;34086;51.076;13.722;2023-03-23T05:56:38;3.97;;;3.08;;
48263;SDS011;34086;51.076;13.722;2023-03-23T05:57:45;5.35;;;2.80;;
48263;SDS011;34086;51.076;13.722;2023-03-23T05:58:57;5.75;;;2.83;;
48263;SDS011;34086;51.076;13.722;2023-03-23T05:59:58;3.90;;;3.08;;
48263;SDS011;34086;51.076;13.722;2023-03-23T06:01:00;4.10;;;2.85;;
48263;SDS011;34086;51.076;13.722;2023-03-23T06:02:04;4.38;;;2.80;;
48263;SDS011;34086;51.076;13.722;2023-03-23T06:03:05;16.70;;;7.90;;
48263;SDS011;34086;51.076;13.722;2023-03-23T06:04:17;26.45;;;13.23;;
48263;SDS011;34086;51.076;13.722;2023-03-23T06:05:27;49.72;;;23.38;;
48263;SDS011;34086;51.076;13.722;2023-03-23T06:06:29;85.30;;;42.33;;
48263;SDS011;34086;51.076;13.722;2023-03-23T06:07:43;76.32;;;38.13;;
48263;SDS011;34086;51.076;13.722;2023-03-23T06:08:44;71.75;;;36.28;;
48263;SDS011;34086;51.076;13.722;2023-03-23T06:09:44;69.53;;;35.65;;
48263;SDS011;34086;51.076;13.722;2023-03-23T06:10:57;63.63;;;32.15;;
48263;SDS011;34086;51.076;13.722;2023-03-23T06:11:57;55.95;;;28.67;;
48263;SDS011;34086;51.076;13.722;2023-03-23T06:13:21;43.30;;;22.40;;
48263;SDS011;34086;51.076;13.722;2023-03-23T06:14:23;42.05;;;22.50;;
48263;SDS011;34086;51.076;13.722;2023-03-23T06:15:24;36.05;;;20.17;;
48263;SDS011;34086;51.076;13.722;2023-03-23T06:16:53;29.23;;;15.75;;
48263;SDS011;34086;51.076;13.722;2023-03-23T06:17:53;27.67;;;15.10;;
48263;SDS011;34086;51.076;13.722;2023-03-23T06:18:59;25.52;;;14.48;;
48263;SDS011;34086;51.076;13.722;2023-03-23T06:20:07;15.02;;;9.20;;
48263;SDS011;34086;51.076;13.722;2023-03-23T06:21:10;14.27;;;8.77;;
48263;SDS011;34086;51.076;13.722;2023-03-23T06:22:23;14.55;;;7.80;;
48263;SDS011;34086;51.076;13.722;2023-03-23T06:23:41;15.32;;;7.00;;
48263;SDS011;34086;51.076;13.722;2023-03-23T06:24:42;10.32;;;6.30;;
48263;SDS011;34086;51.076;13.722;2023-03-23T06:25:44;12.15;;;6.38;;
48263;SDS011;34086;51.076;13.722;2023-03-23T06:26:46;9.75;;;5.90;;
48263;SDS011;34086;51.076;13.722;2023-03-23T06:27:51;10.38;;;5.70;;
48263;SDS011;34086;51.076;13.722;2023-03-23T06:28:52;9.95;;;3.70;;
48263;SDS011;34086;51.076;13.722;2023-03-23T06:29:52;7.78;;;3.22;;
48263;SDS011;34086;51.076;13.722;2023-03-23T06:30:55;6.60;;;3.25;;
48263;SDS011;34086;51.076;13.722;2023-03-23T06:32:00;10.30;;;3.30;;
48263;SDS011;34086;51.076;13.722;2023-03-23T06:33:03;6.32;;;3.00;;
48263;SDS011;34086;51.076;13.722;2023-03-23T06:34:25;5.97;;;2.80;;
48263;SDS011;34086;51.076;13.722;2023-03-23T06:35:55;3.72;;;1.92;;
48263;SDS011;34086;51.076;13.722;2023-03-23T06:37:13;5.53;;;2.38;;
48263;SDS011;34086;51.076;13.722;2023-03-23T06:38:26;4.60;;;2.20;;
48263;SDS011;34086;51.076;13.722;2023-03-23T06:39:28;3.63;;;1.80;;
48263;SDS011;34086;51.076;13.722;2023-03-23T06:40:39;4.45;;;1.80;;
48263;SDS011;34086;51.076;13.722;2023-03-23T06:41:40;3.83;;;1.92;;
48263;SDS011;34086;51.076;13.722;2023-03-23T06:42:40;3.80;;;1.85;;
48263;SDS011;34086;51.076;13.722;2023-03-23T06:44:07;5.38;;;1.92;;
48263;SDS011;34086;51.076;13.722;2023-03-23T06:45:08;3.33;;;1.95;;
48263;SDS011;34086;51.076;13.722;2023-03-23T06:46:15;6.82;;;2.20;;
48263;SDS011;34086;51.076;13.722;2023-03-23T06:47:16;5.30;;;1.98;;
48263;SDS011;34086;51.076;13.722;2023-03-23T06:48:21;4.70;;;1.95;;
48263;SDS011;34086;51.076;13.722;2023-03-23T06:49:22;4.60;;;2.30;;
48263;SDS011;34086;51.076;13.722;2023-03-23T06:50:29;4.75;;;1.98;;
48263;SDS011;34086;51.076;13.722;2023-03-23T06:51:30;3.10;;;1.98;;
48263;SDS011;34086;51.076;13.722;2023-03-23T06:52:31;2.50;;;2.13;;
48263;SDS011;34086;51.076;13.722;2023-03-23T06:53:32;3.22;;;2.15;;